createdAt,value
2022-12-26T07:57:48.764Z,7.73
2022-12-26T08:00:26.645Z,10.73
2022-12-26T08:03:07.787Z,9.27
2022-12-26T08:05:49.702Z,9.53
2022-12-26T08:08:27.230Z,11.07
2022-12-26T08:11:05.789Z,9.33
2022-12-26T08:13:45.301Z,14.07
2022-12-26T08:16:23.345Z,12.10
2022-12-26T08:19:00.496Z,11.50
2022-12-26T08:21:38.233Z,11.60
2022-12-26T08:24:16.359Z,9.73
2022-12-26T08:26:54.197Z,9.13
2022-12-26T08:29:33.875Z,9.07
2022-12-26T08:32:11.131Z,9.00
2022-12-26T08:34:48.615Z,9.70
2022-12-26T08:37:26.037Z,9.63
2022-12-26T08:40:02.940Z,9.80
2022-12-26T08:42:50.144Z,9.47
2022-12-26T08:45:39.755Z,12.03
2022-12-26T08:48:17.206Z,9.77
2022-12-26T08:51:02.048Z,10.70
2022-12-26T08:53:40.095Z,10.87
2022-12-26T08:56:20.068Z,12.00
2022-12-26T08:58:57.992Z,16.80
2022-12-26T09:01:38.256Z,12.27
2022-12-26T09:04:15.650Z,11.70
2022-12-26T09:06:53.209Z,11.87
2022-12-26T09:09:30.611Z,10.83
2022-12-26T09:12:07.813Z,13.03
2022-12-26T09:14:45.071Z,11.87
2022-12-26T09:17:26.726Z,11.43
2022-12-26T09:20:04.411Z,11.13
2022-12-26T09:22:53.838Z,10.67
2022-12-26T09:25:32.242Z,12.17
2022-12-26T09:28:09.327Z,12.07
2022-12-26T09:30:46.888Z,13.17
2022-12-26T09:33:26.462Z,12.70
2022-12-26T09:36:08.281Z,12.67
2022-12-26T09:38:49.205Z,12.43
2022-12-26T09:42:01.617Z,16.17
2022-12-26T09:44:54.400Z,14.07
2022-12-26T09:47:37.242Z,14.23
2022-12-26T09:50:23.850Z,14.23
2022-12-26T09:53:06.440Z,13.30
2022-12-26T09:55:52.211Z,14.13
2022-12-26T09:58:31.887Z,14.27
2022-12-26T10:01:14.006Z,13.23
2022-12-26T10:03:54.849Z,13.87
2022-12-26T10:06:42.141Z,14.07
2022-12-26T10:09:48.757Z,13.23
2022-12-26T10:12:42.491Z,13.53
2022-12-26T10:15:44.745Z,14.20
2022-12-26T10:18:36.162Z,13.67
2022-12-26T10:21:39.524Z,13.77
2022-12-26T10:24:21.983Z,13.85
2022-12-26T10:27:06.717Z,14.93
2022-12-26T10:29:47.208Z,12.47
2022-12-26T10:32:37.134Z,17.30
2022-12-26T10:35:25.770Z,14.20
2022-12-26T10:38:15.839Z,13.83
2022-12-26T10:40:57.209Z,15.50
2022-12-26T10:43:39.103Z,15.17
2022-12-26T10:46:55.107Z,16.10
2022-12-26T10:49:34.552Z,16.70
2022-12-26T10:52:14.287Z,15.40
2022-12-26T10:55:28.971Z,18.00
2022-12-26T10:58:01.729Z,16.37
2022-12-26T11:00:40.098Z,15.33
2022-12-26T11:03:19.538Z,18.23
2022-12-26T11:06:08.517Z,15.10
2022-12-26T11:08:53.233Z,24.77
2022-12-26T11:11:48.556Z,22.73
2022-12-26T11:14:35.614Z,20.57
2022-12-26T11:17:16.797Z,20.60
2022-12-26T11:20:12.219Z,23.40
2022-12-26T11:22:50.679Z,22.73
2022-12-26T11:25:30.722Z,24.07
2022-12-26T11:28:34.634Z,22.23
2022-12-26T11:31:27.127Z,23.35
2022-12-26T11:34:10.359Z,25.87
2022-12-26T11:36:54.820Z,27.17
2022-12-26T11:42:15.381Z,39.17
2022-12-26T11:44:59.223Z,54.13
2022-12-26T11:47:42.481Z,53.15
2022-12-26T11:50:23.664Z,50.07
2022-12-26T11:53:20.565Z,51.90
2022-12-26T11:56:14.339Z,37.17
2022-12-26T11:58:52.087Z,42.60
2022-12-26T12:01:33.324Z,29.30
2022-12-26T12:04:11.826Z,29.47
2022-12-26T12:07:04.820Z,28.70
2022-12-26T12:09:53.497Z,18.20
2022-12-26T12:12:38.122Z,17.40
2022-12-26T12:15:23.333Z,14.13
2022-12-26T12:18:10.206Z,13.53
2022-12-26T12:21:04.105Z,15.70
2022-12-26T12:24:03.633Z,10.77
2022-12-26T12:26:54.430Z,11.80
2022-12-26T12:29:51.340Z,8.05
2022-12-26T12:32:42.676Z,9.00
2022-12-26T12:35:53.129Z,9.97
2022-12-26T12:38:36.457Z,8.50
2022-12-26T12:41:48.072Z,9.75
2022-12-26T12:44:33.500Z,9.27
2022-12-26T12:47:19.530Z,8.33
2022-12-26T12:50:09.569Z,7.10
2022-12-26T12:52:59.654Z,7.23
2022-12-26T12:56:02.600Z,5.23
2022-12-26T12:58:49.451Z,3.63
2022-12-26T13:01:33.405Z,5.03
2022-12-26T13:04:18.283Z,3.40
2022-12-26T13:06:59.982Z,3.53
2022-12-26T13:09:48.500Z,4.23
2022-12-26T13:12:29.720Z,3.63
2022-12-26T13:15:13.049Z,3.20
2022-12-26T13:17:57.898Z,4.38
2022-12-26T13:20:44.855Z,5.93
2022-12-26T13:23:45.552Z,4.80
2022-12-26T13:26:31.115Z,5.37
2022-12-26T13:29:16.228Z,14.07
2022-12-26T13:31:54.101Z,38.50
2022-12-26T13:34:32.007Z,13.20
2022-12-26T13:37:09.485Z,6.63
2022-12-26T13:39:47.091Z,5.70
2022-12-26T13:42:49.223Z,7.97
2022-12-26T13:45:58.674Z,6.00
2022-12-26T13:49:02.528Z,9.00
2022-12-26T13:51:58.546Z,6.05
2022-12-26T13:54:37.179Z,5.60
2022-12-26T13:57:45.266Z,6.90
2022-12-26T14:00:28.435Z,7.23
2022-12-26T14:03:41.376Z,7.60
2022-12-26T14:06:59.367Z,6.97
2022-12-26T14:10:01.806Z,5.60
2022-12-26T14:13:07.248Z,6.63
2022-12-26T14:15:57.297Z,7.80
2022-12-26T14:18:48.136Z,6.13
2022-12-26T14:21:43.208Z,5.20
2022-12-26T14:24:35.047Z,5.93
2022-12-26T14:27:35.190Z,5.33
2022-12-26T14:30:32.382Z,5.13
2022-12-26T14:33:31.412Z,4.53
2022-12-26T14:36:31.772Z,4.50
2022-12-26T14:39:25.627Z,6.20
2022-12-26T14:42:36.900Z,6.83
2022-12-26T14:45:58.205Z,6.03
2022-12-26T14:49:02.152Z,4.07
2022-12-26T14:51:44.312Z,5.97
2022-12-26T14:54:51.319Z,4.23
2022-12-26T14:57:46.858Z,5.83
2022-12-26T15:00:40.120Z,9.50
2022-12-26T15:03:55.334Z,6.47
2022-12-26T15:07:18.638Z,7.87
2022-12-26T15:10:57.389Z,7.13
2022-12-26T15:14:24.036Z,6.37
2022-12-26T15:17:15.267Z,5.97
2022-12-26T15:20:38.186Z,4.63
2022-12-26T15:24:03.231Z,6.67
2022-12-26T15:27:16.083Z,4.80
2022-12-26T15:30:19.235Z,5.87
2022-12-26T15:33:06.244Z,5.72
2022-12-26T15:35:52.058Z,7.57
2022-12-26T15:38:42.337Z,6.13
2022-12-26T15:41:37.882Z,6.03
2022-12-26T15:44:31.567Z,8.67
2022-12-26T15:47:22.196Z,10.75
2022-12-26T15:50:14.810Z,12.60
2022-12-26T15:53:04.004Z,16.57
2022-12-26T15:56:05.795Z,14.53
2022-12-26T15:59:09.305Z,14.90
2022-12-26T16:01:53.647Z,10.00
2022-12-26T16:07:26.806Z,13.13
2022-12-26T16:10:04.942Z,8.77
2022-12-26T16:12:44.613Z,8.37
2022-12-26T16:15:26.235Z,6.10
2022-12-26T16:18:18.728Z,5.53
2022-12-26T16:21:11.192Z,10.20
2022-12-26T16:23:51.125Z,8.20
2022-12-26T16:26:32.269Z,9.17
2022-12-26T16:29:10.316Z,6.97
2022-12-26T16:31:50.415Z,8.50
2022-12-26T16:34:28.640Z,7.27
2022-12-26T16:37:05.892Z,6.27
2022-12-26T16:39:43.381Z,6.53
2022-12-26T16:42:36.063Z,7.43
2022-12-26T16:45:21.732Z,7.63
2022-12-26T16:48:02.035Z,8.93
2022-12-26T16:50:51.353Z,6.70
2022-12-26T16:53:45.820Z,8.67
2022-12-26T16:56:30.662Z,8.33
2022-12-26T16:59:17.690Z,7.93
2022-12-26T17:01:58.555Z,8.80
2022-12-26T17:04:38.647Z,7.93
2022-12-26T17:07:21.472Z,7.27
2022-12-26T17:10:02.036Z,7.97
2022-12-26T17:12:42.066Z,6.83
2022-12-26T17:15:26.271Z,9.57
2022-12-26T17:18:24.110Z,6.03
2022-12-26T17:21:22.761Z,6.17
2022-12-26T17:24:29.468Z,6.70
2022-12-26T17:27:20.534Z,8.10
2022-12-26T17:30:01.058Z,7.30
2022-12-26T17:32:43.410Z,6.47
2022-12-26T17:35:26.154Z,6.80
2022-12-26T17:38:14.130Z,5.10
2022-12-26T17:40:55.782Z,4.90
2022-12-26T17:43:37.090Z,5.87
2022-12-26T17:46:20.142Z,5.03
2022-12-26T17:48:57.453Z,5.70
2022-12-26T17:51:35.454Z,6.77
2022-12-26T17:54:17.590Z,4.77
2022-12-26T17:56:55.119Z,6.97
2022-12-26T17:59:35.972Z,6.23
2022-12-26T18:02:15.489Z,8.63
2022-12-26T18:04:55.154Z,5.63
2022-12-26T18:07:33.942Z,5.73
2022-12-26T18:10:22.011Z,6.90
2022-12-26T18:13:01.908Z,6.87
2022-12-26T18:15:40.820Z,7.23
2022-12-26T18:18:38.965Z,7.87
2022-12-26T18:21:19.879Z,9.47
2022-12-26T18:24:00.088Z,11.00
2022-12-26T18:26:43.211Z,21.20
2022-12-26T18:29:24.047Z,18.37
2022-12-26T18:32:02.735Z,16.40
2022-12-26T18:34:44.095Z,11.93
2022-12-26T18:37:23.992Z,14.07
2022-12-26T18:40:03.248Z,15.50
2022-12-26T18:42:50.303Z,13.27
2022-12-26T18:45:36.454Z,14.30
2022-12-26T18:48:20.569Z,12.23
2022-12-26T18:50:58.084Z,12.43
2022-12-26T18:53:35.894Z,13.17
2022-12-26T18:56:19.202Z,11.73
2022-12-26T18:59:03.042Z,8.68
2022-12-26T19:01:43.232Z,7.33
2022-12-26T19:04:22.072Z,8.73
2022-12-26T19:06:59.818Z,8.70
2022-12-26T19:09:37.605Z,10.40
2022-12-26T19:12:15.436Z,10.30
2022-12-26T19:14:55.659Z,11.00
2022-12-26T19:17:33.508Z,10.40
2022-12-26T19:20:20.213Z,6.27
2022-12-26T19:22:58.715Z,10.10
2022-12-26T19:25:37.759Z,7.77
2022-12-26T19:28:16.239Z,7.60
2022-12-26T19:30:56.448Z,8.67
2022-12-26T19:33:34.412Z,10.70
2022-12-26T19:36:13.671Z,8.20
2022-12-26T19:38:51.727Z,9.47
2022-12-26T19:41:30.662Z,8.73
2022-12-26T19:44:09.870Z,7.60
2022-12-26T19:46:49.676Z,7.37
2022-12-26T19:49:49.711Z,7.73
2022-12-26T19:52:30.908Z,7.55
2022-12-26T19:55:09.710Z,7.07
2022-12-26T19:57:47.323Z,7.13
2022-12-26T20:00:25.264Z,9.20
2022-12-26T20:03:05.912Z,8.77
2022-12-26T20:05:46.019Z,6.67
2022-12-26T20:08:24.662Z,8.47
2022-12-26T20:11:12.924Z,10.33
2022-12-26T20:13:51.620Z,11.63
2022-12-26T20:17:04.464Z,7.83
2022-12-26T20:19:32.611Z,6.33
2022-12-26T20:22:11.880Z,9.67
2022-12-26T20:24:56.909Z,9.43
2022-12-26T20:27:46.434Z,8.97
2022-12-26T20:30:27.007Z,9.00
2022-12-26T20:33:06.939Z,9.83
2022-12-26T20:35:51.071Z,9.03
2022-12-26T20:38:35.917Z,8.27
2022-12-26T20:41:19.380Z,9.57
2022-12-26T20:44:05.913Z,9.27
2022-12-26T20:46:47.316Z,8.57
2022-12-26T20:49:30.457Z,10.17
2022-12-26T20:52:10.069Z,8.90
2022-12-26T20:54:47.555Z,11.17
2022-12-26T20:57:25.304Z,8.93
2022-12-26T21:00:09.267Z,9.23
2022-12-26T21:02:56.506Z,9.80
2022-12-26T21:05:42.762Z,9.50
2022-12-26T21:08:30.495Z,11.38
2022-12-26T21:11:26.053Z,10.23
2022-12-26T21:14:18.751Z,10.10
2022-12-26T21:17:08.285Z,8.27
2022-12-26T21:19:53.253Z,8.43
2022-12-26T21:22:35.957Z,6.93
2022-12-26T21:25:18.250Z,8.33
2022-12-26T21:28:01.624Z,4.43
2022-12-26T21:30:52.580Z,3.40
2022-12-26T21:33:44.276Z,3.67
2022-12-26T21:36:29.343Z,6.23
2022-12-26T21:39:15.186Z,2.43
2022-12-26T21:41:58.793Z,2.63
2022-12-26T21:44:39.023Z,4.60
2022-12-26T21:47:19.945Z,3.77
2022-12-26T21:50:00.089Z,3.70
2022-12-26T21:52:38.342Z,3.60
2022-12-26T21:55:33.111Z,3.00
2022-12-26T21:58:20.567Z,2.50
2022-12-26T22:01:03.188Z,3.90
2022-12-26T22:04:02.393Z,2.93
2022-12-26T22:06:49.945Z,2.27
2022-12-26T22:09:28.833Z,3.30
2022-12-26T22:12:23.080Z,4.10
2022-12-26T22:15:04.339Z,3.27
2022-12-26T22:17:41.692Z,3.07
